LFBH/LRH METAR and TAF weather

Enter ICAO airport designator
Station Type Date Time Source
LFBH METAR 2021/05/14 07:00 UTC NOAA

LFBH 140700Z AUTO 30017KT 9999 BKN024 BKN047 BKN056 13/09 Q1013 TEMPO 29015G25KT


Station Type Date Time Source
LFBH Decoded METAR 2021/05/14 07:00 UTC NOAA

La Rochelle, France (LFBH) 46-09N 001-09W 10M
May 14, 2021 - 03:00 AM EDT / 2021.05.14 0700 UTC
Wind: from the WNW (300 degrees) at 20 MPH (17 KT):0
Visibility: greater than 7 mile(s):0
Sky conditions: mostly cloudy
Temperature: 55 F (13 C)
Dew Point: 48 F (9 C)
Relative Humidity: 76%
Pressure (altimeter): 29.91 in. Hg (1013 hPa)
ob: LFBH 140700Z AUTO 30017KT 9999 BKN024 BKN047 BKN056 13/09 Q1013 TEMPO 29015G25KT
cycle: 7

Station Type Date Time Source
LFBH TAF 2021/05/14 06:21 UTC NOAA

TAF LFBH 140500Z 1406/1506 29015KT 9999 SCT030
TEMPO 1406/1415 29015G25KT
BECMG 1416/1418 23010KT
BECMG 1419/1421 -RA
BECMG 1421/1423 20020G30KT 4000 RA OVC030
TEMPO 1500/1506 OVC007
BECMG 1503/1505 27015KT

Example: see airport list